Time;durP1;ratioP1;P1;durP2;ratioP2;P2;SDS_P1;SDS_P2;PMS_P1;PMS_P2;Temp;Humidity;BMP_temperature;BMP_pressure;BME280_temperature;BME280_humidity;BME280_pressure;Samples;Min_cycle;Max_cycle;Signal;HPM_P1;HPM_P2
2021/06/29 00:01:12;;;;;;;0.00;0.00;;;16.20;66.70;;;;;;5013992;28;20037;-84
2021/06/29 00:03:38;;;;;;;0.00;0.00;;;16.20;66.80;;;;;;5014140;28;20042;-86
2021/06/29 00:06:04;;;;;;;0.43;0.00;;;16.20;66.90;;;;;;5013760;28;20034;-86
2021/06/29 00:08:30;;;;;;;0.00;0.00;;;16.10;66.90;;;;;;5014453;28;20041;-86
2021/06/29 00:10:56;;;;;;;0.00;0.00;;;16.10;67.00;;;;;;5014236;28;20424;-86
2021/06/29 00:13:23;;;;;;;0.10;0.00;;;16.10;67.10;;;;;;5014186;28;20041;-85
2021/06/29 00:15:49;;;;;;;0.00;0.00;;;16.10;67.10;;;;;;5029165;28;20037;-86
2021/06/29 00:18:15;;;;;;;1.20;0.13;;;16.00;67.20;;;;;;5013495;28;20034;-85
2021/06/29 00:20:41;;;;;;;2.38;0.20;;;16.00;67.20;;;;;;5013714;28;20050;-86
2021/06/29 00:23:07;;;;;;;0.00;0.00;;;16.00;67.20;;;;;;5014312;28;20034;-85
2021/06/29 00:25:34;;;;;;;0.00;0.00;;;16.00;67.30;;;;;;5028839;28;20038;-85
2021/06/29 00:28:00;;;;;;;0.00;0.00;;;16.00;67.20;;;;;;5014021;28;20437;-82
2021/06/29 00:30:26;;;;;;;0.00;0.00;;;15.90;67.20;;;;;;5014013;28;20046;-86
2021/06/29 00:32:52;;;;;;;0.00;0.00;;;15.90;67.40;;;;;;5028707;28;20473;-85
2021/06/29 00:35:18;;;;;;;0.00;0.00;;;15.80;67.30;;;;;;5013292;28;20038;-85
2021/06/29 00:37:44;;;;;;;0.00;0.00;;;15.80;67.40;;;;;;5013737;28;20022;-86
2021/06/29 00:40:11;;;;;;;0.00;0.00;;;15.80;67.50;;;;;;5013742;28;20044;-86
2021/06/29 00:42:37;;;;;;;0.10;0.00;;;15.80;67.50;;;;;;5014353;28;20049;-85
2021/06/29 00:45:05;;;;;;;0.00;0.00;;;15.80;67.60;;;;;;5013209;28;20026;-85
2021/06/29 00:47:31;;;;;;;0.00;0.00;;;15.80;67.70;;;;;;5008784;28;20062;-85
2021/06/29 00:49:57;;;;;;;0.00;0.00;;;15.70;67.60;;;;;;5004085;28;20022;-85
2021/06/29 00:52:23;;;;;;;0.00;0.00;;;15.70;67.70;;;;;;5012341;28;20404;-85
2021/06/29 00:54:49;;;;;;;0.00;0.00;;;15.70;67.70;;;;;;5028786;28;20052;-86
2021/06/29 00:57:15;;;;;;;0.00;0.00;;;15.70;67.80;;;;;;5013875;28;20061;-85
2021/06/29 00:59:42;;;;;;;0.00;0.00;;;15.60;67.80;;;;;;5013543;28;20034;-86
2021/06/29 01:02:09;;;;;;;0.08;0.00;;;15.60;67.80;;;;;;5027996;28;20049;-86
2021/06/29 01:04:35;;;;;;;0.10;0.10;;;15.60;67.90;;;;;;5013110;28;20029;-85
2021/06/29 01:07:01;;;;;;;0.00;0.00;;;15.60;68.00;;;;;;5028412;28;20045;-86
2021/06/29 01:09:27;;;;;;;0.00;0.00;;;15.50;67.90;;;;;;5012691;28;20034;-86
2021/06/29 01:11:53;;;;;;;0.03;0.00;;;15.50;68.10;;;;;;5012230;28;20033;-86
2021/06/29 01:14:19;;;;;;;0.00;0.00;;;15.50;68.10;;;;;;5028227;28;20045;-85
2021/06/29 01:16:45;;;;;;;0.20;0.00;;;15.50;68.10;;;;;;5012692;28;20037;-85
2021/06/29 01:19:13;;;;;;;0.10;0.00;;;15.50;68.20;;;;;;5012996;28;20034;-86
2021/06/29 01:21:41;;;;;;;0.00;0.00;;;15.50;68.20;;;;;;5028909;28;20388;-86
2021/06/29 01:24:09;;;;;;;0.20;0.03;;;15.40;68.70;;;;;;5013436;28;20401;-86
2021/06/29 01:26:40;;;;;;;0.08;0.00;;;15.40;68.30;;;;;;5012972;28;20398;-86
2021/06/29 01:29:06;;;;;;;0.00;0.00;;;15.40;68.30;;;;;;5027188;28;20061;-84
2021/06/29 01:31:33;;;;;;;0.20;0.10;;;15.40;68.40;;;;;;5027699;28;20042;-87
2021/06/29 01:34:00;;;;;;;0.10;0.00;;;15.30;68.40;;;;;;5012394;28;20046;-80
2021/06/29 01:36:35;;;;;;;0.00;0.00;;;15.30;68.40;;;;;;5012105;28;20034;-85
2021/06/29 01:39:03;;;;;;;0.00;0.00;;;15.30;68.50;;;;;;5012642;28;20053;-86
2021/06/29 01:41:29;;;;;;;0.10;0.00;;;15.30;68.60;;;;;;5027558;28;20414;-83
2021/06/29 01:44:09;;;;;;;0.00;0.00;;;15.30;68.60;;;;;;5012724;28;20037;-85
2021/06/29 01:46:38;;;;;;;0.03;0.00;;;15.20;68.60;;;;;;5012220;28;20044;-86
2021/06/29 01:49:04;;;;;;;0.10;0.00;;;15.20;68.60;;;;;;5027017;28;20053;-87
2021/06/29 01:51:30;;;;;;;0.00;0.00;;;15.20;68.60;;;;;;5011862;28;20383;-86
2021/06/29 01:53:56;;;;;;;0.70;0.10;;;15.20;68.60;;;;;;5027706;28;20042;-87
2021/06/29 01:56:31;;;;;;;0.10;0.00;;;15.20;68.70;;;;;;5027584;28;20548;-86
2021/06/29 01:59:01;;;;;;;0.00;0.00;;;15.20;68.70;;;;;;5012336;28;20033;-85
2021/06/29 02:01:27;;;;;;;0.00;0.00;;;15.20;68.80;;;;;;5011994;28;20033;-85
2021/06/29 02:03:53;;;;;;;0.00;0.00;;;15.10;68.80;;;;;;5021789;28;20488;-86
2021/06/29 02:06:19;;;;;;;0.00;0.00;;;15.10;68.80;;;;;;5002985;28;20026;-82
2021/06/29 02:08:45;;;;;;;0.20;0.00;;;15.10;68.90;;;;;;5003050;28;20429;-86
2021/06/29 02:11:11;;;;;;;0.10;0.00;;;15.10;69.00;;;;;;5013251;28;20026;-85
2021/06/29 02:13:38;;;;;;;0.10;0.05;;;15.10;69.00;;;;;;5004785;28;20045;-85
2021/06/29 02:16:04;;;;;;;0.00;0.00;;;15.00;68.90;;;;;;4991845;28;20403;-87
2021/06/29 02:18:30;;;;;;;0.50;0.10;;;15.00;68.90;;;;;;4986357;28;20038;-86
2021/06/29 02:20:56;;;;;;;0.00;0.00;;;15.00;69.00;;;;;;4979265;28;20401;-84
2021/06/29 02:23:23;;;;;;;0.00;0.00;;;15.00;69.10;;;;;;4978446;28;20042;-85
2021/06/29 02:25:49;;;;;;;0.00;0.00;;;15.00;69.10;;;;;;4998569;28;20023;-85
2021/06/29 02:28:15;;;;;;;0.00;0.00;;;15.00;69.10;;;;;;4987324;28;20054;-85
2021/06/29 02:30:41;;;;;;;0.20;0.05;;;14.90;69.10;;;;;;4986549;28;20527;-86
2021/06/29 02:33:08;;;;;;;0.00;0.00;;;14.90;69.20;;;;;;4984513;28;20110;-87
2021/06/29 02:35:34;;;;;;;0.70;0.13;;;14.90;69.20;;;;;;4989516;28;20038;-84
2021/06/29 02:38:00;;;;;;;0.00;0.00;;;14.90;69.30;;;;;;5007291;28;20043;-86
2021/06/29 02:40:26;;;;;;;0.00;0.00;;;14.80;69.30;;;;;;4992481;28;20516;-86
2021/06/29 02:42:53;;;;;;;0.00;0.00;;;14.80;69.30;;;;;;4992392;28;20034;-85
2021/06/29 02:45:20;;;;;;;0.05;0.00;;;14.80;69.30;;;;;;4994201;28;20045;-86
2021/06/29 02:47:47;;;;;;;0.00;0.00;;;14.80;69.50;;;;;;5026881;28;20493;-86
2021/06/29 02:50:13;;;;;;;0.00;0.00;;;14.80;69.50;;;;;;5011661;28;20033;-86
2021/06/29 02:52:39;;;;;;;0.00;0.00;;;14.80;69.50;;;;;;5012026;28;20388;-86
2021/06/29 02:55:07;;;;;;;0.00;0.00;;;14.70;69.40;;;;;;5026860;28;20045;-86
2021/06/29 02:57:33;;;;;;;0.10;0.00;;;14.70;69.50;;;;;;5012463;28;20037;-87
2021/06/29 02:59:59;;;;;;;0.00;0.00;;;14.70;69.50;;;;;;5011513;28;20400;-86
2021/06/29 03:02:25;;;;;;;0.52;0.10;;;14.70;69.60;;;;;;5011244;28;20042;-86
2021/06/29 03:04:52;;;;;;;0.00;0.00;;;14.60;69.60;;;;;;5026741;28;20481;-86
2021/06/29 03:07:18;;;;;;;0.00;0.00;;;14.60;70.50;;;;;;5027153;28;20037;-85
2021/06/29 03:09:44;;;;;;;0.20;0.00;;;14.60;69.70;;;;;;5012180;28;20037;-86
2021/06/29 03:12:10;;;;;;;0.05;0.00;;;14.60;69.70;;;;;;4994531;28;20396;-85
2021/06/29 03:14:38;;;;;;;0.10;0.00;;;14.60;69.80;;;;;;5026217;28;20038;-86
2021/06/29 03:17:05;;;;;;;0.10;0.00;;;14.60;69.70;;;;;;5026013;28;20045;-86
2021/06/29 03:19:32;;;;;;;0.00;0.00;;;14.60;69.80;;;;;;5027100;28;20148;-86
2021/06/29 03:21:59;;;;;;;0.10;0.00;;;14.60;69.80;;;;;;5010542;28;20041;-88
2021/06/29 03:24:25;;;;;;;0.00;0.00;;;14.60;69.80;;;;;;5011010;28;20049;-86
2021/06/29 03:26:51;;;;;;;0.28;0.00;;;14.50;69.70;;;;;;5026760;28;20022;-86
2021/06/29 03:29:18;;;;;;;0.00;0.00;;;14.60;69.80;;;;;;5026190;28;20046;-86
2021/06/29 03:31:44;;;;;;;0.43;0.10;;;14.50;69.80;;;;;;5026524;28;20488;-86
2021/06/29 03:34:10;;;;;;;0.00;0.00;;;14.50;69.90;;;;;;5012149;28;20041;-85
2021/06/29 03:36:36;;;;;;;0.00;0.00;;;14.50;69.90;;;;;;5016065;28;20484;-86
2021/06/29 03:39:04;;;;;;;0.00;0.00;;;14.50;69.90;;;;;;5030250;28;20078;-86
2021/06/29 03:41:30;;;;;;;0.73;0.10;;;14.50;70.00;;;;;;5010532;28;20046;-85
2021/06/29 03:43:56;;;;;;;3.25;0.20;;;14.50;70.00;;;;;;5005746;28;20056;-86
2021/06/29 03:46:23;;;;;;;0.10;0.00;;;14.40;70.00;;;;;;5029681;28;20038;-86
2021/06/29 03:48:49;;;;;;;0.10;0.00;;;14.40;70.00;;;;;;5013843;28;20057;-86
2021/06/29 03:51:15;;;;;;;0.00;0.00;;;14.40;70.00;;;;;;5013990;28;20041;-86
2021/06/29 03:53:41;;;;;;;0.00;0.00;;;14.40;70.10;;;;;;5029825;28;20034;-87
2021/06/29 03:56:23;;;;;;;0.00;0.00;;;14.40;70.10;;;;;;5014500;28;20038;-87
2021/06/29 03:58:56;;;;;;;0.00;0.00;;;14.40;70.20;;;;;;5027573;28;20045;-86
2021/06/29 04:01:22;;;;;;;0.00;0.00;;;14.40;70.10;;;;;;5028974;28;20033;-87
2021/06/29 04:03:54;;;;;;;0.00;0.00;;;14.40;70.10;;;;;;5029776;28;20057;-86
2021/06/29 04:06:21;;;;;;;0.10;0.00;;;14.40;70.10;;;;;;5014801;28;20045;-86
2021/06/29 04:08:48;;;;;;;0.00;0.00;;;14.40;70.10;;;;;;5014440;28;20037;-87
2021/06/29 04:11:14;;;;;;;0.00;0.00;;;14.40;70.10;;;;;;5014575;28;20049;-85
2021/06/29 04:13:40;;;;;;;0.00;0.00;;;14.40;70.00;;;;;;5014168;28;20030;-87
2021/06/29 04:16:06;;;;;;;0.43;0.25;;;14.50;70.10;;;;;;5029003;28;20030;-86
2021/06/29 04:18:32;;;;;;;0.10;0.00;;;14.50;70.90;;;;;;5014943;28;20026;-86
2021/06/29 04:20:58;;;;;;;0.45;0.00;;;14.50;70.10;;;;;;5014333;28;20037;-86
2021/06/29 04:23:24;;;;;;;0.73;0.05;;;14.50;70.20;;;;;;5014039;28;20030;-86
2021/06/29 04:25:50;;;;;;;0.00;0.00;;;14.40;70.30;;;;;;5014155;28;20026;-86
2021/06/29 04:28:16;;;;;;;0.00;0.00;;;14.40;70.40;;;;;;5029141;28;20027;-86
2021/06/29 04:30:42;;;;;;;0.45;0.30;;;14.30;70.50;;;;;;5013720;28;20045;-87
2021/06/29 04:33:08;;;;;;;0.10;0.05;;;14.30;70.50;;;;;;5025210;28;20046;-86
2021/06/29 04:35:34;;;;;;;0.38;0.00;;;14.30;70.50;;;;;;5009685;28;20060;-86
2021/06/29 04:38:01;;;;;;;0.05;0.00;;;14.40;70.50;;;;;;5029082;28;20038;-84
2021/06/29 04:40:27;;;;;;;0.43;0.08;;;14.40;70.40;;;;;;5013848;28;20030;-87
2021/06/29 04:42:53;;;;;;;0.10;0.10;;;14.50;70.40;;;;;;5013745;28;20041;-86
2021/06/29 04:45:19;;;;;;;0.25;0.00;;;14.60;70.30;;;;;;5013294;28;20050;-86
2021/06/29 04:47:48;;;;;;;0.30;0.00;;;14.60;70.30;;;;;;5029064;28;20034;-86
2021/06/29 04:50:15;;;;;;;0.00;0.00;;;14.60;70.20;;;;;;5013663;28;20037;-86
2021/06/29 04:52:41;;;;;;;0.00;0.00;;;14.70;70.20;;;;;;5013959;28;20038;-84
2021/06/29 04:55:08;;;;;;;0.00;0.00;;;14.80;70.20;;;;;;5028881;28;20049;-87
2021/06/29 04:57:34;;;;;;;0.00;0.00;;;14.90;70.10;;;;;;5013689;28;20389;-85
2021/06/29 05:00:07;;;;;;;0.00;0.00;;;15.10;69.90;;;;;;5013592;28;20044;-86
2021/06/29 05:02:33;;;;;;;0.17;0.10;;;15.20;69.70;;;;;;5012499;28;20377;-85
2021/06/29 05:04:59;;;;;;;0.00;0.00;;;15.30;69.70;;;;;;5028706;28;20029;-86
2021/06/29 05:07:25;;;;;;;0.00;0.00;;;15.50;69.50;;;;;;5028663;28;20397;-86
2021/06/29 05:09:51;;;;;;;0.30;0.10;;;15.80;69.30;;;;;;5013328;28;20097;-86
2021/06/29 05:12:17;;;;;;;0.20;0.10;;;15.90;69.00;;;;;;5013188;28;20036;-86
2021/06/29 05:14:43;;;;;;;0.00;0.00;;;16.00;68.80;;;;;;5013010;28;20037;-88
2021/06/29 05:17:09;;;;;;;0.00;0.00;;;16.10;68.80;;;;;;5012932;28;20033;-87
2021/06/29 05:19:36;;;;;;;0.20;0.00;;;16.00;68.80;;;;;;5013133;28;20026;-87
2021/06/29 05:22:02;;;;;;;1.13;0.13;;;16.00;68.90;;;;;;5028484;28;20057;-86
2021/06/29 05:24:28;;;;;;;0.32;0.10;;;16.00;69.10;;;;;;5012502;28;20026;-87
2021/06/29 05:26:54;;;;;;;0.10;0.10;;;16.00;69.20;;;;;;5008220;28;20381;-86
2021/06/29 05:29:20;;;;;;;0.00;0.00;;;15.90;69.20;;;;;;5006663;28;20061;-87
2021/06/29 05:31:46;;;;;;;0.10;0.00;;;15.90;69.40;;;;;;5027749;28;20034;-87
2021/06/29 05:34:12;;;;;;;0.00;0.00;;;15.90;69.50;;;;;;5010676;28;20050;-87
2021/06/29 05:36:38;;;;;;;0.00;0.00;;;15.80;69.50;;;;;;5013571;28;20392;-87
2021/06/29 05:39:05;;;;;;;0.08;0.00;;;15.80;69.60;;;;;;5012756;28;20038;-86
2021/06/29 05:41:31;;;;;;;0.20;0.10;;;15.80;69.70;;;;;;5027438;28;20053;-85
2021/06/29 05:43:57;;;;;;;0.10;0.00;;;15.80;69.80;;;;;;5012635;28;20041;-85
2021/06/29 05:46:23;;;;;;;1.35;0.22;;;15.80;69.80;;;;;;5011111;28;20041;-84
2021/06/29 05:48:51;;;;;;;0.40;0.10;;;15.80;69.90;;;;;;5027875;28;20105;-85
2021/06/29 05:51:17;;;;;;;0.00;0.00;;;15.80;69.90;;;;;;5011868;28;20456;-85
2021/06/29 05:53:43;;;;;;;0.20;0.00;;;15.80;69.90;;;;;;5012249;28;20038;-86
2021/06/29 05:56:13;;;;;;;0.00;0.00;;;15.90;69.90;;;;;;5027553;28;20046;-84
2021/06/29 05:58:39;;;;;;;0.35;0.20;;;15.90;69.90;;;;;;5027331;28;20029;-85
2021/06/29 06:01:05;;;;;;;0.00;0.00;;;15.90;70.60;;;;;;5027210;28;20041;-85
2021/06/29 06:03:31;;;;;;;0.60;0.00;;;15.90;69.80;;;;;;5011690;28;20456;-87
2021/06/29 06:05:58;;;;;;;0.05;0.00;;;16.00;69.80;;;;;;5012212;28;20044;-86
2021/06/29 06:08:24;;;;;;;0.00;0.00;;;16.00;69.80;;;;;;5007411;28;20496;-86
2021/06/29 06:10:51;;;;;;;0.08;0.00;;;16.00;69.80;;;;;;5017417;28;20034;-87
2021/06/29 06:13:17;;;;;;;0.00;0.00;;;16.10;69.70;;;;;;5027703;28;20029;-88
2021/06/29 06:15:43;;;;;;;0.03;0.00;;;16.20;69.70;;;;;;5027111;28;20049;-87
2021/06/29 06:18:09;;;;;;;0.00;0.00;;;16.20;69.60;;;;;;5011401;28;20029;-86
2021/06/29 06:20:35;;;;;;;0.10;0.08;;;16.30;69.60;;;;;;5012038;28;20034;-85
2021/06/29 06:23:02;;;;;;;0.00;0.00;;;16.40;69.50;;;;;;5027125;28;20468;-83
2021/06/29 06:25:28;;;;;;;0.25;0.00;;;16.40;69.40;;;;;;5027308;28;20029;-85
2021/06/29 06:27:54;;;;;;;0.00;0.00;;;16.50;69.40;;;;;;5011965;28;20487;-83
2021/06/29 06:30:20;;;;;;;0.35;0.08;;;16.50;69.30;;;;;;5010173;28;20079;-85
2021/06/29 06:32:46;;;;;;;0.35;0.15;;;16.60;69.30;;;;;;5027354;28;20038;-85
2021/06/29 06:35:13;;;;;;;0.30;0.08;;;16.60;69.30;;;;;;5027071;28;20041;-85
2021/06/29 06:37:39;;;;;;;1.75;0.10;;;16.70;69.30;;;;;;5011357;28;20057;-85
2021/06/29 06:40:06;;;;;;;0.10;0.10;;;16.70;69.20;;;;;;5027165;28;20034;-85
2021/06/29 06:42:32;;;;;;;0.65;0.10;;;16.80;69.30;;;;;;5010954;28;20045;-85
2021/06/29 06:44:58;;;;;;;0.45;0.10;;;16.80;69.20;;;;;;5011834;28;20500;-85
2021/06/29 06:47:25;;;;;;;0.25;0.08;;;16.90;69.20;;;;;;5026577;28;20041;-85
2021/06/29 06:49:51;;;;;;;0.03;0.00;;;17.00;69.50;;;;;;5010872;28;20041;-85
2021/06/29 06:52:17;;;;;;;0.30;0.10;;;17.00;69.10;;;;;;5026768;28;20026;-85
2021/06/29 06:54:44;;;;;;;0.15;0.00;;;17.10;69.00;;;;;;5027187;28;20033;-84
2021/06/29 06:57:10;;;;;;;0.13;0.00;;;17.20;69.00;;;;;;5010976;28;20030;-85
2021/06/29 06:59:37;;;;;;;0.15;0.05;;;17.30;68.90;;;;;;5011852;28;20026;-85
2021/06/29 07:02:03;;;;;;;0.10;0.00;;;17.40;68.80;;;;;;5011250;28;20038;-87
2021/06/29 07:04:30;;;;;;;0.88;0.17;;;17.50;68.60;;;;;;5027123;28;20034;-85
2021/06/29 07:06:56;;;;;;;0.10;0.00;;;17.70;69.10;;;;;;5010359;28;20025;-85
2021/06/29 07:09:22;;;;;;;0.55;0.10;;;17.80;68.30;;;;;;5013308;28;20034;-85
2021/06/29 07:11:51;;;;;;;0.10;0.00;;;18.00;68.10;;;;;;5011268;28;20041;-85
2021/06/29 07:14:17;;;;;;;0.10;0.00;;;18.20;67.80;;;;;;5005881;28;20046;-85
2021/06/29 07:16:43;;;;;;;0.65;0.00;;;18.40;67.60;;;;;;5013886;28;20045;-83
2021/06/29 07:19:09;;;;;;;1.08;0.17;;;18.60;67.30;;;;;;5015615;28;20392;-86
2021/06/29 07:21:36;;;;;;;6.65;0.30;;;18.90;66.80;;;;;;5014512;28;20033;-84
2021/06/29 07:24:03;;;;;;;0.10;0.00;;;19.30;66.50;;;;;;5030555;28;20518;-85
2021/06/29 07:26:29;;;;;;;0.20;0.10;;;19.60;65.90;;;;;;5015297;28;20026;-85
2021/06/29 07:28:55;;;;;;;0.00;0.00;;;19.90;65.50;;;;;;5015052;28;20045;-85
2021/06/29 07:31:21;;;;;;;0.20;0.00;;;20.20;64.90;;;;;;5014923;28;20387;-85
2021/06/29 07:33:48;;;;;;;0.03;0.00;;;20.50;64.60;;;;;;5030377;28;20416;-87
2021/06/29 07:36:16;;;;;;;0.00;0.00;;;20.60;64.30;;;;;;5013876;28;20506;-86
2021/06/29 07:38:42;;;;;;;0.10;0.00;;;20.70;64.20;;;;;;5030345;28;20030;-84
2021/06/29 07:41:09;;;;;;;0.05;0.00;;;20.90;64.30;;;;;;5015335;28;20065;-87
2021/06/29 07:43:36;;;;;;;0.10;0.00;;;21.00;64.10;;;;;;5030070;28;20469;-85
2021/06/29 07:46:02;;;;;;;0.25;0.10;;;21.00;64.10;;;;;;5014343;28;20046;-85
2021/06/29 07:48:28;;;;;;;0.03;0.00;;;20.80;64.40;;;;;;4994882;28;20041;-85
2021/06/29 07:50:54;;;;;;;0.20;0.10;;;20.50;64.80;;;;;;5012818;28;20594;-85
2021/06/29 07:53:21;;;;;;;0.40;0.08;;;20.20;65.30;;;;;;5029903;28;20037;-85
2021/06/29 07:55:49;;;;;;;0.98;0.22;;;20.00;65.90;;;;;;5014746;28;20036;-85
2021/06/29 07:58:16;;;;;;;0.03;0.00;;;19.80;66.20;;;;;;5029996;28;22273;-85
2021/06/29 08:00:42;;;;;;;0.38;0.08;;;19.60;66.60;;;;;;5014649;28;20025;-85
2021/06/29 08:03:08;;;;;;;0.00;0.00;;;19.40;66.80;;;;;;5013822;28;20030;-85
2021/06/29 08:05:34;;;;;;;0.00;0.00;;;19.30;67.10;;;;;;5029331;28;20022;-87
2021/06/29 08:08:00;;;;;;;0.00;0.00;;;19.30;67.30;;;;;;5029764;28;20400;-86
2021/06/29 08:10:27;;;;;;;0.13;0.00;;;19.30;67.10;;;;;;5014508;28;20022;-86
2021/06/29 08:12:53;;;;;;;0.03;0.00;;;19.50;66.70;;;;;;5029925;28;20495;-86
2021/06/29 08:15:20;;;;;;;0.00;0.00;;;19.60;66.10;;;;;;5013051;28;20037;-86
2021/06/29 08:17:46;;;;;;;2.42;0.10;;;19.60;66.00;;;;;;5029626;28;20034;-85
2021/06/29 08:20:14;;;;;;;0.32;0.10;;;19.70;66.10;;;;;;5013562;28;20037;-85
2021/06/29 08:22:41;;;;;;;2.83;0.10;;;19.60;66.00;;;;;;5014320;28;20033;-85
2021/06/29 08:25:08;;;;;;;0.05;0.00;;;19.70;66.10;;;;;;5029366;28;20029;-86
2021/06/29 08:27:34;;;;;;;0.00;0.00;;;19.70;66.00;;;;;;5014629;28;20034;-85
2021/06/29 08:30:00;;;;;;;0.10;0.00;;;19.70;65.90;;;;;;5029112;28;20048;-86
2021/06/29 08:32:27;;;;;;;0.10;0.00;;;19.80;65.90;;;;;;5013696;28;20041;-86
2021/06/29 08:34:54;;;;;;;7.10;0.13;;;19.70;65.80;;;;;;5013505;28;20053;-85
2021/06/29 08:37:23;;;;;;;0.75;0.10;;;19.60;65.90;;;;;;5029166;28;20022;-86
2021/06/29 08:39:49;;;;;;;0.00;0.00;;;19.60;66.00;;;;;;5014208;28;20034;-86
2021/06/29 08:42:19;;;;;;;0.32;0.17;;;19.80;65.80;;;;;;4993807;28;20047;-86
2021/06/29 08:44:45;;;;;;;0.50;0.10;;;20.00;65.50;;;;;;5010889;28;20026;-86
2021/06/29 08:47:11;;;;;;;0.05;0.00;;;20.50;64.60;;;;;;5013268;28;20049;-86
2021/06/29 08:49:37;;;;;;;0.00;0.00;;;20.90;63.80;;;;;;5013907;28;20029;-86
2021/06/29 08:52:07;;;;;;;0.28;0.10;;;20.90;63.30;;;;;;5012660;28;20053;-85
2021/06/29 08:54:34;;;;;;;0.05;0.00;;;20.90;63.60;;;;;;5014082;28;20045;-84
2021/06/29 08:57:02;;;;;;;0.00;0.00;;;20.70;63.90;;;;;;5012804;28;20050;-86
2021/06/29 08:59:28;;;;;;;1.13;0.10;;;20.60;64.30;;;;;;5013644;28;20056;-87
2021/06/29 09:01:54;;;;;;;0.10;0.05;;;20.40;64.50;;;;;;5028301;28;20026;-85
2021/06/29 09:04:49;;;;;;;0.00;0.00;;;20.30;64.90;;;;;;5012096;28;20034;-86
2021/06/29 09:07:24;;;;;;;0.17;0.00;;;20.00;65.20;;;;;;4998748;28;20392;-86
2021/06/29 09:09:54;;;;;;;0.38;0.10;;;19.80;65.60;;;;;;5028572;28;20030;-86
2021/06/29 09:12:42;;;;;;;0.25;0.00;;;19.70;66.00;;;;;;5013665;28;20030;-86
2021/06/29 09:15:25;;;;;;;0.40;0.00;;;19.50;66.20;;;;;;5011285;28;20033;-85
2021/06/29 09:17:52;;;;;;;0.10;0.00;;;19.50;66.40;;;;;;5012818;28;20037;-88
2021/06/29 09:20:50;;;;;;;0.00;0.00;;;19.50;66.40;;;;;;5028332;28;20034;-86
2021/06/29 09:23:20;;;;;;;0.28;0.15;;;19.40;66.40;;;;;;5015903;28;20026;-86
2021/06/29 09:25:55;;;;;;;0.00;0.00;;;19.30;66.30;;;;;;5012043;28;20050;-86
2021/06/29 09:28:24;;;;;;;0.00;0.00;;;19.30;66.40;;;;;;5027506;28;20038;-86
2021/06/29 09:30:55;;;;;;;0.00;0.00;;;19.30;66.50;;;;;;5027520;28;20048;-84
2021/06/29 09:33:21;;;;;;;;;;;19.30;66.50;;;;;;5012657;28;20389;-86
2021/06/29 09:35:52;;;;;;;0.17;0.00;;;19.20;66.40;;;;;;5012911;28;19917;-85
2021/06/29 09:38:36;;;;;;;0.93;0.20;;;19.20;66.40;;;;;;5028151;28;20046;-86
2021/06/29 09:41:04;;;;;;;0.08;0.00;;;19.20;66.40;;;;;;5026407;28;20038;-84
2021/06/29 09:43:36;;;;;;;0.00;0.00;;;19.20;66.40;;;;;;5027660;28;20046;-85
2021/06/29 09:46:02;;;;;;;;;;;19.20;66.40;;;;;;5027597;28;20029;-85
2021/06/29 09:48:39;;;;;;;0.00;0.00;;;19.20;66.30;;;;;;5013414;28;19913;-85
2021/06/29 09:51:27;;;;;;;0.00;0.00;;;19.30;66.20;;;;;;5027510;28;20034;-84
2021/06/29 09:53:54;;;;;;;0.05;0.00;;;19.40;66.10;;;;;;5012768;28;20026;-86
2021/06/29 09:56:26;;;;;;;0.10;0.00;;;19.40;65.80;;;;;;5027538;28;20034;-86
2021/06/29 09:58:56;;;;;;;0.10;0.00;;;19.50;65.70;;;;;;5012418;28;20038;-85
2021/06/29 10:01:29;;;;;;;0.30;0.10;;;19.60;65.70;;;;;;5026633;28;20045;-87
2021/06/29 10:04:00;;;;;;;0.10;0.00;;;19.80;65.50;;;;;;5027209;28;20265;-86
2021/06/29 10:06:27;;;;;;;0.08;0.00;;;19.90;65.00;;;;;;5011836;28;20029;-86
2021/06/29 10:08:54;;;;;;;0.20;0.00;;;20.10;64.80;;;;;;5012429;28;20495;-84
2021/06/29 10:11:22;;;;;;;0.17;0.00;;;20.30;64.50;;;;;;5027776;28;20056;-86
2021/06/29 10:13:51;;;;;;;0.30;0.05;;;20.60;64.20;;;;;;5027492;28;20018;-86
2021/06/29 10:16:21;;;;;;;0.03;0.00;;;21.10;63.60;;;;;;5011266;28;20053;-86
2021/06/29 10:18:51;;;;;;;0.00;0.00;;;21.50;62.90;;;;;;5027287;28;20038;-85
2021/06/29 10:21:19;;;;;;;0.15;0.00;;;21.90;62.20;;;;;;4995888;28;20042;-86
2021/06/29 10:23:46;;;;;;;0.20;0.00;;;22.30;61.60;;;;;;5026933;28;20033;-86
2021/06/29 10:26:12;;;;;;;0.45;0.10;;;22.60;61.10;;;;;;5027138;28;20032;-86
2021/06/29 10:28:39;;;;;;;0.22;0.20;;;22.70;60.70;;;;;;5027273;28;20025;-86
2021/06/29 10:31:05;;;;;;;0.38;0.15;;;23.00;60.70;;;;;;5010071;28;20034;-84
2021/06/29 10:33:32;;;;;;;0.25;0.00;;;23.20;60.30;;;;;;5011441;28;20037;-85
2021/06/29 10:36:00;;;;;;;0.10;0.00;;;23.40;60.00;;;;;;5027130;28;20041;-87
2021/06/29 10:38:26;;;;;;;0.10;0.00;;;23.60;59.80;;;;;;5012163;28;20039;-86
2021/06/29 10:40:53;;;;;;;0.20;0.10;;;23.80;59.60;;;;;;5027034;28;20033;-85
2021/06/29 10:43:19;;;;;;;0.00;0.00;;;24.00;59.30;;;;;;5027893;28;20384;-87
2021/06/29 10:45:47;;;;;;;0.20;0.00;;;24.30;59.00;;;;;;5030758;28;20038;-86
2021/06/29 10:48:23;;;;;;;0.00;0.00;;;24.60;58.60;;;;;;4998845;28;20057;-86
2021/06/29 10:50:51;;;;;;;0.10;0.00;;;24.90;58.10;;;;;;5015863;28;20392;-86
2021/06/29 10:53:35;;;;;;;0.00;0.00;;;25.20;57.80;;;;;;5030997;28;20026;-86
2021/06/29 10:56:09;;;;;;;0.40;0.03;;;25.00;57.70;;;;;;5015745;28;20601;-80
2021/06/29 10:58:39;;;;;;;0.13;0.10;;;24.80;58.00;;;;;;5030023;28;20026;-87
2021/06/29 11:01:23;;;;;;;0.00;0.00;;;24.30;58.60;;;;;;5029940;28;20030;-86
2021/06/29 11:03:50;;;;;;;0.00;0.00;;;23.80;59.20;;;;;;5013269;28;20036;-86
2021/06/29 11:06:42;;;;;;;0.00;0.00;;;23.30;59.80;;;;;;4998709;28;20026;-86
2021/06/29 11:09:15;;;;;;;0.10;0.00;;;22.90;60.30;;;;;;5015829;28;20388;-87
2021/06/29 11:11:42;;;;;;;0.00;0.00;;;22.60;61.00;;;;;;5029560;28;20038;-85
2021/06/29 11:14:27;;;;;;;0.10;0.00;;;22.30;61.40;;;;;;5030346;28;20029;-86
2021/06/29 11:16:58;;;;;;;0.10;0.00;;;22.10;61.60;;;;;;5030257;28;20054;-86
2021/06/29 11:19:56;;;;;;;0.00;0.00;;;21.90;61.80;;;;;;5030322;28;20018;-85
2021/06/29 11:22:47;;;;;;;0.43;0.10;;;21.70;61.70;;;;;;5001598;28;20390;-86
2021/06/29 11:25:13;;;;;;;0.00;0.00;;;21.80;61.10;;;;;;5000293;28;20483;-86
2021/06/29 11:28:04;;;;;;;0.13;0.08;;;22.00;60.30;;;;;;5015581;28;20046;-85
2021/06/29 11:30:59;;;;;;;0.05;0.00;;;22.20;59.60;;;;;;5026412;28;20045;-86
2021/06/29 11:33:28;;;;;;;0.00;0.00;;;22.50;59.20;;;;;;5014246;28;20519;-85
2021/06/29 11:35:54;;;;;;;0.00;0.00;;;22.80;58.60;;;;;;5014993;28;20105;-84
2021/06/29 11:38:39;;;;;;;0.00;0.00;;;22.90;58.00;;;;;;5030500;28;20385;-87
2021/06/29 11:41:24;;;;;;;0.00;0.00;;;23.20;57.80;;;;;;5014907;28;20022;-86
2021/06/29 11:44:05;;;;;;;0.57;0.10;;;23.50;57.40;;;;;;5014837;28;20396;-85
2021/06/29 11:46:50;;;;;;;;;;;23.70;57.20;;;;;;5015173;28;20037;-84
2021/06/29 11:49:18;;;;;;;0.10;0.00;;;23.70;57.10;;;;;;5000166;28;19918;-86
2021/06/29 11:52:04;;;;;;;0.00;0.00;;;23.60;57.20;;;;;;5030520;28;20465;-86
2021/06/29 11:54:38;;;;;;;0.00;0.00;;;23.60;57.40;;;;;;5014517;28;20042;-86
2021/06/29 11:57:17;;;;;;;0.00;0.00;;;23.50;57.50;;;;;;5014180;28;20050;-85
2021/06/29 11:59:43;;;;;;;0.00;0.00;;;23.60;57.50;;;;;;5029862;28;20026;-85
2021/06/29 12:02:12;;;;;;;0.10;0.00;;;23.60;57.40;;;;;;5013995;28;20026;-85
2021/06/29 12:05:00;;;;;;;0.10;0.00;;;23.60;57.50;;;;;;5014632;28;20085;-86
2021/06/29 12:07:38;;;;;;;0.10;0.00;;;23.50;57.60;;;;;;5001025;28;20033;-86
2021/06/29 12:10:28;;;;;;;0.00;0.00;;;23.40;57.70;;;;;;5014519;28;20400;-86
2021/06/29 12:12:59;;;;;;;0.10;0.10;;;23.30;57.70;;;;;;5012330;28;20377;-87
2021/06/29 12:15:27;;;;;;;0.13;0.10;;;23.40;57.70;;;;;;5011812;28;20038;-86
2021/06/29 12:18:10;;;;;;;0.05;0.00;;;23.50;57.50;;;;;;5029890;28;20045;-86
2021/06/29 12:20:47;;;;;;;0.00;0.00;;;23.60;57.30;;;;;;5014030;28;20018;-86
2021/06/29 12:23:15;;;;;;;0.00;0.00;;;23.80;57.10;;;;;;5028747;28;20030;-86
2021/06/29 12:25:46;;;;;;;0.00;0.00;;;24.00;56.80;;;;;;5051143;28;20397;-87
2021/06/29 12:28:13;;;;;;;0.00;0.00;;;24.00;56.70;;;;;;5019878;28;20002;-82
2021/06/29 12:30:43;;;;;;;0.10;0.00;;;24.00;56.80;;;;;;5050883;28;20056;-86
2021/06/29 12:33:19;;;;;;;0.00;0.00;;;23.80;56.70;;;;;;5035119;28;20034;-86
2021/06/29 12:35:59;;;;;;;0.00;0.00;;;23.80;56.90;;;;;;5016386;28;20315;-86
2021/06/29 12:38:28;;;;;;;0.00;0.00;;;23.70;56.80;;;;;;5028647;28;20033;-86
2021/06/29 12:41:07;;;;;;;0.00;0.00;;;23.60;56.80;;;;;;5013509;28;20484;-86
2021/06/29 12:43:39;;;;;;;0.10;0.00;;;23.50;56.90;;;;;;5013827;28;20041;-86
2021/06/29 12:46:21;;;;;;;0.00;0.00;;;23.50;57.00;;;;;;5028344;28;20026;-86
2021/06/29 12:49:20;;;;;;;0.25;0.08;;;23.70;56.70;;;;;;5026560;28;20518;-86
2021/06/29 12:52:02;;;;;;;0.00;0.00;;;23.90;56.30;;;;;;5010333;28;20033;-86
2021/06/29 12:54:29;;;;;;;0.00;0.00;;;24.00;56.10;;;;;;5010403;28;20045;-86
2021/06/29 12:56:57;;;;;;;0.22;0.00;;;23.90;56.10;;;;;;5027454;28;20088;-86